sensor_id;sensor_type;location;lat;lon;timestamp;pressure;altitude;pressure_sealevel;temperature;humidity
36378;BME280;22402;42.746;23.606;2023-06-10T00:01:07;93088.72;;;16.00;100.00
36378;BME280;22402;42.746;23.606;2023-06-10T00:03:32;93090.16;;;16.03;100.00
36378;BME280;22402;42.746;23.606;2023-06-10T00:05:58;93084.72;;;16.04;100.00
36378;BME280;22402;42.746;23.606;2023-06-10T00:08:23;93087.00;;;16.07;100.00
36378;BME280;22402;42.746;23.606;2023-06-10T00:10:49;93089.41;;;16.09;100.00
36378;BME280;22402;42.746;23.606;2023-06-10T00:13:15;93084.00;;;16.10;100.00
36378;BME280;22402;42.746;23.606;2023-06-10T00:15:41;93076.97;;;16.17;100.00
36378;BME280;22402;42.746;23.606;2023-06-10T00:18:07;93082.50;;;16.23;100.00
36378;BME280;22402;42.746;23.606;2023-06-10T00:20:35;93085.38;;;16.28;100.00
36378;BME280;22402;42.746;23.606;2023-06-10T00:23:03;93086.63;;;16.32;100.00
36378;BME280;22402;42.746;23.606;2023-06-10T00:25:28;93084.25;;;16.37;100.00
36378;BME280;22402;42.746;23.606;2023-06-10T00:27:53;93085.50;;;16.41;100.00
36378;BME280;22402;42.746;23.606;2023-06-10T00:30:19;93083.28;;;16.45;100.00
36378;BME280;22402;42.746;23.606;2023-06-10T00:32:45;93077.47;;;16.49;100.00
36378;BME280;22402;42.746;23.606;2023-06-10T00:35:10;93078.72;;;16.53;100.00
36378;BME280;22402;42.746;23.606;2023-06-10T00:37:36;93080.00;;;16.57;100.00
36378;BME280;22402;42.746;23.606;2023-06-10T00:40:05;93089.31;;;16.60;100.00
36378;BME280;22402;42.746;23.606;2023-06-10T00:42:30;93097.81;;;16.62;100.00
36378;BME280;22402;42.746;23.606;2023-06-10T00:44:56;93097.03;;;16.61;100.00
36378;BME280;22402;42.746;23.606;2023-06-10T00:47:22;93098.63;;;16.62;100.00
36378;BME280;22402;42.746;23.606;2023-06-10T00:49:49;93104.53;;;16.64;100.00
36378;BME280;22402;42.746;23.606;2023-06-10T00:52:16;93106.34;;;16.64;100.00
36378;BME280;22402;42.746;23.606;2023-06-10T00:54:44;93111.41;;;16.66;100.00
36378;BME280;22402;42.746;23.606;2023-06-10T00:57:10;93115.69;;;16.67;100.00
36378;BME280;22402;42.746;23.606;2023-06-10T00:59:36;93114.69;;;16.68;100.00
36378;BME280;22402;42.746;23.606;2023-06-10T01:02:01;93108.44;;;16.69;100.00
36378;BME280;22402;42.746;23.606;2023-06-10T01:04:27;93109.25;;;16.69;100.00
36378;BME280;22402;42.746;23.606;2023-06-10T01:09:38;93106.78;;;16.68;100.00
36378;BME280;22402;42.746;23.606;2023-06-10T01:12:26;93105.97;;;16.67;100.00
36378;BME280;22402;42.746;23.606;2023-06-10T01:14:54;93108.78;;;16.66;100.00
36378;BME280;22402;42.746;23.606;2023-06-10T01:17:20;93116.88;;;16.64;100.00
36378;BME280;22402;42.746;23.606;2023-06-10T01:19:53;93112.81;;;16.61;100.00
36378;BME280;22402;42.746;23.606;2023-06-10T01:22:20;93107.13;;;16.58;100.00
36378;BME280;22402;42.746;23.606;2023-06-10T01:24:48;93098.59;;;16.56;100.00
36378;BME280;22402;42.746;23.606;2023-06-10T01:27:17;93096.34;;;16.53;100.00
36378;BME280;22402;42.746;23.606;2023-06-10T01:29:46;93096.53;;;16.51;100.00
36378;BME280;22402;42.746;23.606;2023-06-10T01:32:32;93096.06;;;16.48;100.00
36378;BME280;22402;42.746;23.606;2023-06-10T01:34:59;93100.09;;;16.44;100.00
36378;BME280;22402;42.746;23.606;2023-06-10T01:37:26;93098.03;;;16.39;100.00
36378;BME280;22402;42.746;23.606;2023-06-10T01:39:52;93090.53;;;16.36;100.00
36378;BME280;22402;42.746;23.606;2023-06-10T01:42:20;93101.41;;;16.33;100.00
36378;BME280;22402;42.746;23.606;2023-06-10T01:44:46;93099.78;;;16.32;100.00
36378;BME280;22402;42.746;23.606;2023-06-10T01:47:11;93097.53;;;16.29;100.00
36378;BME280;22402;42.746;23.606;2023-06-10T01:49:37;93101.34;;;16.26;100.00
36378;BME280;22402;42.746;23.606;2023-06-10T01:52:02;93110.88;;;16.27;100.00
36378;BME280;22402;42.746;23.606;2023-06-10T01:54:28;93097.91;;;16.26;100.00
36378;BME280;22402;42.746;23.606;2023-06-10T01:56:54;93097.25;;;16.24;100.00
36378;BME280;22402;42.746;23.606;2023-06-10T01:59:19;93092.00;;;16.24;100.00
36378;BME280;22402;42.746;23.606;2023-06-10T02:01:45;93099.72;;;16.25;100.00
36378;BME280;22402;42.746;23.606;2023-06-10T02:04:10;93101.53;;;16.25;100.00
36378;BME280;22402;42.746;23.606;2023-06-10T02:06:36;93092.63;;;16.26;100.00
36378;BME280;22402;42.746;23.606;2023-06-10T02:09:03;93096.28;;;16.25;100.00
36378;BME280;22402;42.746;23.606;2023-06-10T02:11:28;93088.38;;;16.25;100.00
36378;BME280;22402;42.746;23.606;2023-06-10T02:13:54;93087.38;;;16.26;100.00
36378;BME280;22402;42.746;23.606;2023-06-10T02:16:20;93086.56;;;16.25;100.00
36378;BME280;22402;42.746;23.606;2023-06-10T02:18:46;93092.63;;;16.26;100.00
36378;BME280;22402;42.746;23.606;2023-06-10T02:21:12;93089.84;;;16.27;100.00
36378;BME280;22402;42.746;23.606;2023-06-10T02:23:37;93090.81;;;16.26;100.00
36378;BME280;22402;42.746;23.606;2023-06-10T02:26:03;93084.75;;;16.26;100.00
36378;BME280;22402;42.746;23.606;2023-06-10T02:28:28;93082.91;;;16.26;100.00
36378;BME280;22402;42.746;23.606;2023-06-10T02:30:54;93084.75;;;16.26;100.00
36378;BME280;22402;42.746;23.606;2023-06-10T02:33:19;93077.88;;;16.25;100.00
36378;BME280;22402;42.746;23.606;2023-06-10T02:35:45;93077.66;;;16.26;100.00
36378;BME280;22402;42.746;23.606;2023-06-10T02:38:10;93081.09;;;16.27;100.00
36378;BME280;22402;42.746;23.606;2023-06-10T02:40:36;93076.84;;;16.26;100.00
36378;BME280;22402;42.746;23.606;2023-06-10T02:43:01;93076.03;;;16.25;100.00
36378;BME280;22402;42.746;23.606;2023-06-10T02:48:02;93082.13;;;16.26;100.00
36378;BME280;22402;42.746;23.606;2023-06-10T02:50:27;93074.22;;;16.26;100.00
36378;BME280;22402;42.746;23.606;2023-06-10T02:52:53;93079.47;;;16.26;100.00
36378;BME280;22402;42.746;23.606;2023-06-10T02:55:18;93076.84;;;16.26;100.00
36378;BME280;22402;42.746;23.606;2023-06-10T02:57:44;93083.72;;;16.27;100.00
36378;BME280;22402;42.746;23.606;2023-06-10T03:00:09;93081.31;;;16.25;100.00
36378;BME280;22402;42.746;23.606;2023-06-10T03:02:36;93077.06;;;16.24;100.00
36378;BME280;22402;42.746;23.606;2023-06-10T03:05:04;93067.50;;;16.23;100.00
36378;BME280;22402;42.746;23.606;2023-06-10T03:07:30;93062.25;;;16.23;100.00
36378;BME280;22402;42.746;23.606;2023-06-10T03:09:56;93071.78;;;16.24;100.00
36378;BME280;22402;42.746;23.606;2023-06-10T03:12:21;93073.59;;;16.24;100.00
36378;BME280;22402;42.746;23.606;2023-06-10T03:14:47;93073.59;;;16.24;100.00
36378;BME280;22402;42.746;23.606;2023-06-10T03:17:12;93069.97;;;16.25;100.00
36378;BME280;22402;42.746;23.606;2023-06-10T03:19:38;93076.03;;;16.25;100.00
36378;BME280;22402;42.746;23.606;2023-06-10T03:22:08;93077.66;;;16.26;100.00
36378;BME280;22402;42.746;23.606;2023-06-10T03:24:34;93078.84;;;16.24;100.00
36378;BME280;22402;42.746;23.606;2023-06-10T03:27:01;93083.13;;;16.25;100.00
36378;BME280;22402;42.746;23.606;2023-06-10T03:29:27;93082.50;;;16.23;100.00
36378;BME280;22402;42.746;23.606;2023-06-10T03:31:52;93089.38;;;16.24;100.00
36378;BME280;22402;42.746;23.606;2023-06-10T03:34:18;93085.13;;;16.23;100.00
36378;BME280;22402;42.746;23.606;2023-06-10T03:36:43;93089.38;;;16.24;100.00
36378;BME280;22402;42.746;23.606;2023-06-10T03:39:08;93096.28;;;16.25;100.00
36378;BME280;22402;42.746;23.606;2023-06-10T03:41:34;93103.16;;;16.26;100.00
36378;BME280;22402;42.746;23.606;2023-06-10T03:44:00;93097.09;;;16.25;100.00
36378;BME280;22402;42.746;23.606;2023-06-10T03:46:26;93095.09;;;16.27;100.00
36378;BME280;22402;42.746;23.606;2023-06-10T03:48:51;93099.97;;;16.30;100.00
36378;BME280;22402;42.746;23.606;2023-06-10T03:51:16;93091.06;;;16.31;100.00
36378;BME280;22402;42.746;23.606;2023-06-10T03:53:42;93097.94;;;16.32;100.00
36378;BME280;22402;42.746;23.606;2023-06-10T03:56:08;93102.03;;;16.35;100.00
36378;BME280;22402;42.746;23.606;2023-06-10T03:58:33;93097.16;;;16.32;100.00
36378;BME280;22402;42.746;23.606;2023-06-10T04:00:58;93099.13;;;16.30;100.00
36378;BME280;22402;42.746;23.606;2023-06-10T04:03:24;93100.16;;;16.29;100.00
36378;BME280;22402;42.746;23.606;2023-06-10T04:05:49;93102.78;;;16.29;100.00
36378;BME280;22402;42.746;23.606;2023-06-10T04:08:15;93098.31;;;16.29;100.00
36378;BME280;22402;42.746;23.606;2023-06-10T04:10:41;93104.41;;;16.30;100.00
36378;BME280;22402;42.746;23.606;2023-06-10T04:13:06;93101.78;;;16.30;100.00
36378;BME280;22402;42.746;23.606;2023-06-10T04:15:32;93097.53;;;16.29;100.00
36378;BME280;22402;42.746;23.606;2023-06-10T04:18:00;93098.53;;;16.28;100.00
36378;BME280;22402;42.746;23.606;2023-06-10T04:20:26;93102.78;;;16.29;100.00
36378;BME280;22402;42.746;23.606;2023-06-10T04:22:52;93107.66;;;16.32;100.00
36378;BME280;22402;42.746;23.606;2023-06-10T04:25:17;93094.50;;;16.32;100.00
36378;BME280;22402;42.746;23.606;2023-06-10T04:27:43;93104.88;;;16.33;100.00
36378;BME280;22402;42.746;23.606;2023-06-10T04:30:09;93103.69;;;16.36;100.00
36378;BME280;22402;42.746;23.606;2023-06-10T04:32:35;93107.72;;;16.38;100.00
36378;BME280;22402;42.746;23.606;2023-06-10T04:35:00;93099.66;;;16.40;100.00
36378;BME280;22402;42.746;23.606;2023-06-10T04:37:26;93101.47;;;16.39;100.00
36378;BME280;22402;42.746;23.606;2023-06-10T04:39:51;93100.09;;;16.44;100.00
36378;BME280;22402;42.746;23.606;2023-06-10T04:42:16;93105.19;;;16.45;100.00
36378;BME280;22402;42.746;23.606;2023-06-10T04:47:54;93101.34;;;16.48;100.00
36378;BME280;22402;42.746;23.606;2023-06-10T04:50:21;93103.78;;;16.49;100.00
36378;BME280;22402;42.746;23.606;2023-06-10T04:52:46;93098.97;;;16.53;100.00
36378;BME280;22402;42.746;23.606;2023-06-10T04:55:12;93097.78;;;16.55;100.00
36378;BME280;22402;42.746;23.606;2023-06-10T04:57:37;93102.66;;;16.58;100.00
36378;BME280;22402;42.746;23.606;2023-06-10T05:00:03;93102.91;;;16.63;100.00
36378;BME280;22402;42.746;23.606;2023-06-10T05:02:31;93099.53;;;16.70;100.00
36378;BME280;22402;42.746;23.606;2023-06-10T05:04:56;93107.69;;;16.75;100.00
36378;BME280;22402;42.746;23.606;2023-06-10T05:07:23;93105.28;;;16.80;100.00
36378;BME280;22402;42.746;23.606;2023-06-10T05:09:48;93099.47;;;16.84;100.00
36378;BME280;22402;42.746;23.606;2023-06-10T05:12:14;93103.59;;;16.94;100.00
36378;BME280;22402;42.746;23.606;2023-06-10T05:14:39;93097.38;;;17.01;100.00
36378;BME280;22402;42.746;23.606;2023-06-10T05:17:05;93098.28;;;17.15;100.00
36378;BME280;22402;42.746;23.606;2023-06-10T05:19:33;93102.41;;;17.31;100.00
36378;BME280;22402;42.746;23.606;2023-06-10T05:22:01;93100.28;;;17.48;100.00
36378;BME280;22402;42.746;23.606;2023-06-10T05:24:27;93096.53;;;17.64;100.00
36378;BME280;22402;42.746;23.606;2023-06-10T05:26:52;93095.97;;;17.75;100.00
36378;BME280;22402;42.746;23.606;2023-06-10T05:29:17;93093.03;;;17.85;100.00
36378;BME280;22402;42.746;23.606;2023-06-10T05:31:43;93092.03;;;17.99;100.00
36378;BME280;22402;42.746;23.606;2023-06-10T05:34:08;93098.19;;;18.13;100.00
36378;BME280;22402;42.746;23.606;2023-06-10T05:36:34;93087.06;;;18.24;100.00
36378;BME280;22402;42.746;23.606;2023-06-10T05:38:59;93088.50;;;18.33;100.00
36378;BME280;22402;42.746;23.606;2023-06-10T05:41:25;93092.34;;;18.37;100.00
36378;BME280;22402;42.746;23.606;2023-06-10T05:43:50;93096.41;;;18.40;100.00
36378;BME280;22402;42.746;23.606;2023-06-10T05:46:16;93094.81;;;18.45;100.00
36378;BME280;22402;42.746;23.606;2023-06-10T05:48:41;93093.59;;;18.55;100.00
36378;BME280;22402;42.746;23.606;2023-06-10T05:51:07;93102.53;;;18.67;100.00
36378;BME280;22402;42.746;23.606;2023-06-10T05:53:32;93115.19;;;18.78;100.00
36378;BME280;22402;42.746;23.606;2023-06-10T05:55:58;93106.66;;;18.89;100.00
36378;BME280;22402;42.746;23.606;2023-06-10T05:58:24;93109.28;;;19.03;100.00
36378;BME280;22402;42.746;23.606;2023-06-10T06:00:49;93106.66;;;19.16;100.00
36378;BME280;22402;42.746;23.606;2023-06-10T06:03:15;93120.06;;;19.34;100.00
36378;BME280;22402;42.746;23.606;2023-06-10T06:05:41;93119.81;;;19.56;100.00
36378;BME280;22402;42.746;23.606;2023-06-10T06:08:10;93112.88;;;19.82;100.00
36378;BME280;22402;42.746;23.606;2023-06-10T06:10:35;93123.38;;;20.08;100.00
36378;BME280;22402;42.746;23.606;2023-06-10T06:13:01;93118.19;;;20.26;100.00
36378;BME280;22402;42.746;23.606;2023-06-10T06:15:26;93114.47;;;20.41;100.00
36378;BME280;22402;42.746;23.606;2023-06-10T06:17:52;93109.91;;;20.55;99.97
36378;BME280;22402;42.746;23.606;2023-06-10T06:20:19;93119.19;;;20.70;99.23
36378;BME280;22402;42.746;23.606;2023-06-10T06:22:44;93116.03;;;20.87;98.37
36378;BME280;22402;42.746;23.606;2023-06-10T06:25:10;93114.66;;;21.03;97.63
36378;BME280;22402;42.746;23.606;2023-06-10T06:27:35;93109.88;;;21.18;96.61
36378;BME280;22402;42.746;23.606;2023-06-10T06:30:01;93112.63;;;21.30;95.42
36378;BME280;22402;42.746;23.606;2023-06-10T06:32:26;93100.09;;;21.44;94.90
36378;BME280;22402;42.746;23.606;2023-06-10T06:34:53;93096.06;;;21.59;93.88
36378;BME280;22402;42.746;23.606;2023-06-10T06:37:21;93105.28;;;21.75;92.59
36378;BME280;22402;42.746;23.606;2023-06-10T06:39:47;93102.72;;;21.87;91.79
36378;BME280;22402;42.746;23.606;2023-06-10T06:42:12;93101.81;;;21.93;91.20
36378;BME280;22402;42.746;23.606;2023-06-10T06:44:38;93099.88;;;22.00;91.17
36378;BME280;22402;42.746;23.606;2023-06-10T06:47:03;93106.66;;;22.15;90.87
36378;BME280;22402;42.746;23.606;2023-06-10T06:49:29;93094.88;;;22.29;90.38
36378;BME280;22402;42.746;23.606;2023-06-10T06:51:54;93097.50;;;22.47;89.64
36378;BME280;22402;42.746;23.606;2023-06-10T06:54:20;93094.31;;;22.69;88.38
36378;BME280;22402;42.746;23.606;2023-06-10T06:56:45;93092.94;;;22.96;87.70
36378;BME280;22402;42.746;23.606;2023-06-10T06:59:13;93093.56;;;23.34;86.10
36378;BME280;22402;42.746;23.606;2023-06-10T07:01:39;93099.34;;;23.90;84.41
36378;BME280;22402;42.746;23.606;2023-06-10T07:04:04;93097.25;;;24.44;81.28
36378;BME280;22402;42.746;23.606;2023-06-10T07:06:30;93092.69;;;24.85;79.33
36378;BME280;22402;42.746;23.606;2023-06-10T07:08:55;93095.06;;;25.15;77.69
36378;BME280;22402;42.746;23.606;2023-06-10T07:11:21;93091.22;;;25.22;76.10
36378;BME280;22402;42.746;23.606;2023-06-10T07:13:47;93091.75;;;25.24;75.88
36378;BME280;22402;42.746;23.606;2023-06-10T07:16:12;93088.13;;;25.31;75.46
36378;BME280;22402;42.746;23.606;2023-06-10T07:18:38;93088.13;;;25.31;74.12
36378;BME280;22402;42.746;23.606;2023-06-10T07:21:03;93087.47;;;25.23;74.01
36378;BME280;22402;42.746;23.606;2023-06-10T07:23:29;93087.75;;;25.10;74.22
36378;BME280;22402;42.746;23.606;2023-06-10T07:25:54;93094.97;;;24.93;75.21
36378;BME280;22402;42.746;23.606;2023-06-10T07:28:20;93091.63;;;24.86;76.12
36378;BME280;22402;42.746;23.606;2023-06-10T07:30:45;93093.16;;;24.82;75.83
36378;BME280;22402;42.746;23.606;2023-06-10T07:33:10;93086.13;;;24.75;76.06
36378;BME280;22402;42.746;23.606;2023-06-10T07:35:36;93090.50;;;24.82;75.76
36378;BME280;22402;42.746;23.606;2023-06-10T07:38:02;93086.31;;;25.02;75.43
36378;BME280;22402;42.746;23.606;2023-06-10T07:40:27;93083.75;;;25.24;74.31
36378;BME280;22402;42.746;23.606;2023-06-10T07:42:52;93077.84;;;25.39;73.29
36378;BME280;22402;42.746;23.606;2023-06-10T07:45:18;93085.84;;;25.56;72.62
36378;BME280;22402;42.746;23.606;2023-06-10T07:47:44;93079.50;;;25.79;71.79
36378;BME280;22402;42.746;23.606;2023-06-10T07:50:10;93083.56;;;26.26;69.63
36378;BME280;22402;42.746;23.606;2023-06-10T07:52:35;93079.78;;;26.93;67.06
36378;BME280;22402;42.746;23.606;2023-06-10T07:55:01;93080.59;;;27.58;65.87
36378;BME280;22402;42.746;23.606;2023-06-10T07:57:26;93085.16;;;28.00;64.10
36378;BME280;22402;42.746;23.606;2023-06-10T07:59:52;93085.25;;;28.15;63.05
36378;BME280;22402;42.746;23.606;2023-06-10T08:02:17;93080.16;;;28.18;62.89
36378;BME280;22402;42.746;23.606;2023-06-10T08:04:43;93086.91;;;28.26;61.88
36378;BME280;22402;42.746;23.606;2023-06-10T08:07:08;93078.31;;;28.24;61.25
36378;BME280;22402;42.746;23.606;2023-06-10T08:09:34;93086.31;;;28.19;61.33
36378;BME280;22402;42.746;23.606;2023-06-10T08:11:59;93080.44;;;28.17;61.05
36378;BME280;22402;42.746;23.606;2023-06-10T08:14:25;93077.13;;;28.05;61.09
36378;BME280;22402;42.746;23.606;2023-06-10T08:16:50;93077.09;;;27.94;60.47
36378;BME280;22402;42.746;23.606;2023-06-10T08:19:16;93071.19;;;27.87;60.58
36378;BME280;22402;42.746;23.606;2023-06-10T08:21:42;93078.91;;;27.84;60.79
36378;BME280;22402;42.746;23.606;2023-06-10T08:24:07;93068.19;;;27.84;60.57
36378;BME280;22402;42.746;23.606;2023-06-10T08:26:32;93067.38;;;28.36;60.15
36378;BME280;22402;42.746;23.606;2023-06-10T08:28:58;93070.56;;;29.37;57.71
36378;BME280;22402;42.746;23.606;2023-06-10T08:31:23;93064.00;;;30.04;55.93
36378;BME280;22402;42.746;23.606;2023-06-10T08:33:49;93064.53;;;30.16;54.78
36378;BME280;22402;42.746;23.606;2023-06-10T08:36:14;93062.94;;;30.05;54.63
36378;BME280;22402;42.746;23.606;2023-06-10T08:38:40;93064.38;;;29.72;55.32
36378;BME280;22402;42.746;23.606;2023-06-10T08:41:06;93069.22;;;29.39;56.01
36378;BME280;22402;42.746;23.606;2023-06-10T08:43:33;93061.44;;;29.27;56.35
36378;BME280;22402;42.746;23.606;2023-06-10T08:46:00;93063.56;;;29.20;56.19
36378;BME280;22402;42.746;23.606;2023-06-10T08:48:29;93059.28;;;29.04;56.44
36378;BME280;22402;42.746;23.606;2023-06-10T08:50:57;93061.06;;;28.88;56.61
36378;BME280;22402;42.746;23.606;2023-06-10T08:53:23;93059.75;;;28.80;56.50
36378;BME280;22402;42.746;23.606;2023-06-10T08:55:51;93053.63;;;29.46;56.51
36378;BME280;22402;42.746;23.606;2023-06-10T08:58:20;93049.00;;;30.63;53.58
36378;BME280;22402;42.746;23.606;2023-06-10T09:00:46;93054.09;;;31.53;50.42
36378;BME280;22402;42.746;23.606;2023-06-10T09:03:12;93053.13;;;31.97;48.48
36378;BME280;22402;42.746;23.606;2023-06-10T09:05:37;93046.09;;;32.02;48.19
36378;BME280;22402;42.746;23.606;2023-06-10T09:08:05;93039.72;;;31.87;48.73
36378;BME280;22402;42.746;23.606;2023-06-10T09:10:32;93037.84;;;31.59;48.26
36378;BME280;22402;42.746;23.606;2023-06-10T09:12:57;93039.69;;;31.29;48.56
36378;BME280;22402;42.746;23.606;2023-06-10T09:15:23;93046.66;;;31.35;48.56
36378;BME280;22402;42.746;23.606;2023-06-10T09:17:49;93040.50;;;31.64;48.62
36378;BME280;22402;42.746;23.606;2023-06-10T09:20:16;93041.75;;;32.00;47.44
36378;BME280;22402;42.746;23.606;2023-06-10T09:22:42;93037.47;;;32.48;46.79
36378;BME280;22402;42.746;23.606;2023-06-10T09:25:09;93033.97;;;32.66;46.63
36378;BME280;22402;42.746;23.606;2023-06-10T09:27:52;93028.22;;;33.10;45.46
36378;BME280;22402;42.746;23.606;2023-06-10T09:30:30;93023.44;;;33.59;45.25
36378;BME280;22402;42.746;23.606;2023-06-10T09:32:56;93018.09;;;34.14;44.45
36378;BME280;22402;42.746;23.606;2023-06-10T09:35:23;93020.69;;;34.97;42.89
36378;BME280;22402;42.746;23.606;2023-06-10T09:37:57;93029.13;;;35.77;41.17
36378;BME280;22402;42.746;23.606;2023-06-10T09:40:23;93026.72;;;36.46;39.25
36378;BME280;22402;42.746;23.606;2023-06-10T09:42:56;93028.53;;;36.60;36.87
36378;BME280;22402;42.746;23.606;2023-06-10T09:45:23;93014.13;;;36.50;36.69
36378;BME280;22402;42.746;23.606;2023-06-10T09:47:53;93017.41;;;36.87;36.30
36378;BME280;22402;42.746;23.606;2023-06-10T09:50:19;93015.84;;;37.47;35.37
36378;BME280;22402;42.746;23.606;2023-06-10T09:52:45;93020.78;;;38.18;35.48
36378;BME280;22402;42.746;23.606;2023-06-10T09:55:11;93015.66;;;38.85;33.63
36378;BME280;22402;42.746;23.606;2023-06-10T09:57:37;93006.44;;;38.98;33.88
36378;BME280;22402;42.746;23.606;2023-06-10T10:00:07;93002.13;;;38.08;34.61
36378;BME280;22402;42.746;23.606;2023-06-10T10:02:44;93005.75;;;36.95;35.23
36378;BME280;22402;42.746;23.606;2023-06-10T10:05:10;92990.41;;;37.08;34.49
36378;BME280;22402;42.746;23.606;2023-06-10T10:07:35;92988.56;;;37.82;34.16
36378;BME280;22402;42.746;23.606;2023-06-10T10:10:01;92983.19;;;38.50;32.73
36378;BME280;22402;42.746;23.606;2023-06-10T10:12:27;92994.28;;;39.16;31.88
36378;BME280;22402;42.746;23.606;2023-06-10T10:14:53;92984.06;;;39.80;30.59
36378;BME280;22402;42.746;23.606;2023-06-10T10:17:21;92978.94;;;40.36;29.91
36378;BME280;22402;42.746;23.606;2023-06-10T10:19:53;92984.28;;;40.82;28.97
36378;BME280;22402;42.746;23.606;2023-06-10T10:22:25;92982.94;;;41.16;27.83
36378;BME280;22402;42.746;23.606;2023-06-10T10:24:56;92978.97;;;41.70;27.05
36378;BME280;22402;42.746;23.606;2023-06-10T10:27:34;92987.34;;;41.33;27.49
36378;BME280;22402;42.746;23.606;2023-06-10T10:30:02;92977.06;;;39.91;28.12
36378;BME280;22402;42.746;23.606;2023-06-10T10:32:55;92968.75;;;38.20;29.82
36378;BME280;22402;42.746;23.606;2023-06-10T10:35:23;92967.81;;;36.38;31.99
36378;BME280;22402;42.746;23.606;2023-06-10T10:37:50;92972.13;;;35.01;34.25
36378;BME280;22402;42.746;23.606;2023-06-10T10:40:17;92966.09;;;33.76;36.82
36378;BME280;22402;42.746;23.606;2023-06-10T10:42:43;92964.41;;;32.63;38.81
36378;BME280;22402;42.746;23.606;2023-06-10T10:45:09;92964.50;;;31.67;40.09
36378;BME280;22402;42.746;23.606;2023-06-10T10:47:36;92961.97;;;30.88;42.46
36378;BME280;22402;42.746;23.606;2023-06-10T10:50:13;92959.41;;;30.23;43.73
36378;BME280;22402;42.746;23.606;2023-06-10T10:52:55;92952.91;;;29.64;44.35
36378;BME280;22402;42.746;23.606;2023-06-10T10:55:22;92955.13;;;29.26;44.77
36378;BME280;22402;42.746;23.606;2023-06-10T11:00:34;92951.09;;;32.10;41.06
36378;BME280;22402;42.746;23.606;2023-06-10T11:05:35;92949.44;;;35.95;34.93
36378;BME280;22402;42.746;23.606;2023-06-10T11:08:01;92948.19;;;37.46;31.83
36378;BME280;22402;42.746;23.606;2023-06-10T11:10:32;92957.69;;;38.75;30.10
36378;BME280;22402;42.746;23.606;2023-06-10T11:12:58;92949.44;;;39.80;28.45
36378;BME280;22402;42.746;23.606;2023-06-10T11:15:28;92951.16;;;40.71;27.36
36378;BME280;22402;42.746;23.606;2023-06-10T11:18:14;92941.63;;;41.61;24.97
36378;BME280;22402;42.746;23.606;2023-06-10T11:28:37;92923.91;;;42.86;22.30
36378;BME280;22402;42.746;23.606;2023-06-10T11:31:03;92922.28;;;41.54;23.73
36378;BME280;22402;42.746;23.606;2023-06-10T11:33:29;92923.63;;;39.78;25.37
36378;BME280;22402;42.746;23.606;2023-06-10T11:35:55;92916.16;;;38.07;27.02
36378;BME280;22402;42.746;23.606;2023-06-10T11:38:21;92915.16;;;36.57;29.11
36378;BME280;22402;42.746;23.606;2023-06-10T11:40:50;92909.75;;;35.28;30.63
36378;BME280;22402;42.746;23.606;2023-06-10T11:43:19;92906.69;;;34.26;32.46
36378;BME280;22402;42.746;23.606;2023-06-10T11:45:45;92904.69;;;33.35;33.60
36378;BME280;22402;42.746;23.606;2023-06-10T11:48:12;92899.75;;;32.58;35.32
36378;BME280;22402;42.746;23.606;2023-06-10T11:50:38;92900.94;;;31.90;36.79
36378;BME280;22402;42.746;23.606;2023-06-10T11:53:03;92901.88;;;31.27;38.39
36378;BME280;22402;42.746;23.606;2023-06-10T11:55:42;92903.41;;;30.70;39.85
36378;BME280;22402;42.746;23.606;2023-06-10T11:58:18;92912.91;;;30.17;41.54
36378;BME280;22402;42.746;23.606;2023-06-10T12:00:48;92906.94;;;29.76;43.37
36378;BME280;22402;42.746;23.606;2023-06-10T12:03:14;92902.50;;;29.30;44.15
36378;BME280;22402;42.746;23.606;2023-06-10T12:05:40;92899.34;;;28.82;44.16
36378;BME280;22402;42.746;23.606;2023-06-10T12:08:09;92900.34;;;28.40;45.52
36378;BME280;22402;42.746;23.606;2023-06-10T12:10:42;92899.78;;;28.08;46.58
36378;BME280;22402;42.746;23.606;2023-06-10T12:13:11;92897.59;;;27.79;47.39
36378;BME280;22402;42.746;23.606;2023-06-10T12:15:37;92900.69;;;27.56;48.56
36378;BME280;22402;42.746;23.606;2023-06-10T12:18:03;92906.50;;;27.42;50.58
36378;BME280;22402;42.746;23.606;2023-06-10T12:20:31;92901.63;;;27.29;51.28
36378;BME280;22402;42.746;23.606;2023-06-10T12:23:00;92904.19;;;27.14;51.33
36378;BME280;22402;42.746;23.606;2023-06-10T12:25:28;92896.59;;;26.95;50.63
36378;BME280;22402;42.746;23.606;2023-06-10T12:27:57;92894.06;;;26.78;51.00
36378;BME280;22402;42.746;23.606;2023-06-10T12:30:24;92895.63;;;26.69;51.81
36378;BME280;22402;42.746;23.606;2023-06-10T12:32:52;92890.50;;;26.63;52.42
36378;BME280;22402;42.746;23.606;2023-06-10T12:35:19;92896.03;;;26.93;52.54
36378;BME280;22402;42.746;23.606;2023-06-10T12:38:00;92891.97;;;27.23;52.02
36378;BME280;22402;42.746;23.606;2023-06-10T12:40:33;92888.25;;;27.29;52.18
36378;BME280;22402;42.746;23.606;2023-06-10T12:42:59;92883.66;;;27.19;52.28
36378;BME280;22402;42.746;23.606;2023-06-10T12:45:32;92887.03;;;27.04;52.59
36378;BME280;22402;42.746;23.606;2023-06-10T12:50:31;92882.56;;;26.78;53.05
36378;BME280;22402;42.746;23.606;2023-06-10T12:52:56;92879.63;;;26.74;52.68
36378;BME280;22402;42.746;23.606;2023-06-10T12:55:22;92887.41;;;26.81;52.44
36378;BME280;22402;42.746;23.606;2023-06-10T12:57:48;92879.47;;;26.96;52.65
36378;BME280;22402;42.746;23.606;2023-06-10T13:00:15;92881.75;;;27.15;52.26
36378;BME280;22402;42.746;23.606;2023-06-10T13:02:40;92876.53;;;27.45;52.19
36378;BME280;22402;42.746;23.606;2023-06-10T13:05:06;92878.31;;;27.82;51.63
36378;BME280;22402;42.746;23.606;2023-06-10T13:07:31;92875.66;;;28.08;50.80